createdAt,value
2018-02-06T00:00:00.106Z,-1.59
2018-02-06T00:01:00.094Z,-1.61
2018-02-06T00:02:00.071Z,-1.54
2018-02-06T00:03:00.062Z,-1.64
2018-02-06T00:04:00.057Z,-1.54
2018-02-06T00:05:00.024Z,-1.62
2018-02-06T00:06:00.011Z,-1.66
2018-02-06T00:06:59.993Z,-1.66
2018-02-06T00:07:59.985Z,-1.62
2018-02-06T00:08:59.973Z,-1.68
2018-02-06T00:09:59.954Z,-1.61
2018-02-06T00:10:59.930Z,-1.64
2018-02-06T00:11:59.915Z,-1.68
2018-02-06T00:12:59.899Z,-1.68
2018-02-06T00:13:59.894Z,-1.69
2018-02-06T00:14:59.872Z,-1.77
2018-02-06T00:15:59.877Z,-1.65
2018-02-06T00:16:59.850Z,-1.68
2018-02-06T00:17:59.850Z,-1.79
2018-02-06T00:18:59.830Z,-1.74
2018-02-06T00:19:59.800Z,-1.76
2018-02-06T00:20:59.785Z,-1.74
2018-02-06T00:21:59.768Z,-1.69
2018-02-06T00:22:59.757Z,-1.69
2018-02-06T00:23:59.730Z,-1.72
2018-02-06T00:24:59.715Z,-1.84
2018-02-06T00:25:59.696Z,-1.74
2018-02-06T00:26:59.712Z,-1.77
2018-02-06T00:27:59.667Z,-1.72
2018-02-06T00:28:59.657Z,-1.66
2018-02-06T00:29:59.639Z,-1.80
2018-02-06T00:30:59.621Z,-1.80
2018-02-06T00:31:59.611Z,-1.76
2018-02-06T00:32:59.589Z,-1.79
2018-02-06T00:33:59.578Z,-1.79
2018-02-06T00:34:59.573Z,-1.79
2018-02-06T00:35:59.544Z,-1.74
2018-02-06T00:36:59.530Z,-1.79
2018-02-06T00:37:59.512Z,-1.82
2018-02-06T00:38:59.494Z,-1.79
2018-02-06T00:39:59.487Z,-1.80
2018-02-06T00:40:59.469Z,-1.82
2018-02-06T00:41:59.453Z,-1.80
2018-02-06T00:42:59.437Z,-1.77
2018-02-06T00:43:59.428Z,-1.80
2018-02-06T00:44:59.403Z,-1.76
2018-02-06T00:45:59.389Z,-1.76
2018-02-06T00:46:59.377Z,-1.77
2018-02-06T00:47:59.352Z,-1.76
2018-02-06T00:48:59.338Z,-1.83
2018-02-06T00:49:59.322Z,-1.82
2018-02-06T00:50:59.313Z,-1.83
2018-02-06T00:51:59.295Z,-1.77
2018-02-06T00:52:59.295Z,-1.76
2018-02-06T00:53:59.271Z,-1.83
2018-02-06T00:54:59.253Z,-1.76
2018-02-06T00:55:59.236Z,-1.83
2018-02-06T00:56:59.213Z,-1.87
2018-02-06T00:57:59.204Z,-1.80
2018-02-06T00:58:59.187Z,-1.89
2018-02-06T00:59:59.179Z,-1.90
2018-02-06T01:00:59.153Z,-1.90
2018-02-06T01:01:59.137Z,-1.94
2018-02-06T01:02:59.121Z,-1.82
2018-02-06T01:03:59.103Z,-1.87
2018-02-06T01:04:59.112Z,-1.92
2018-02-06T01:05:59.091Z,-1.87
2018-02-06T01:06:59.061Z,-1.90
2018-02-06T01:07:59.049Z,-1.92
2018-02-06T01:08:59.037Z,-1.95
2018-02-06T01:09:59.011Z,-1.95
2018-02-06T01:10:59.006Z,-1.97
2018-02-06T01:11:58.985Z,-1.95
2018-02-06T01:12:58.967Z,-2.00
2018-02-06T01:13:58.951Z,-1.92
2018-02-06T01:14:58.935Z,-1.92
2018-02-06T01:15:58.917Z,-1.92
2018-02-06T01:16:58.900Z,-1.94
2018-02-06T01:17:58.885Z,-1.92
2018-02-06T01:18:58.872Z,-2.02
2018-02-06T01:19:58.851Z,-1.98
2018-02-06T01:20:58.846Z,-2.02
2018-02-06T01:21:58.819Z,-2.05
2018-02-06T01:22:58.809Z,-2.02
2018-02-06T01:23:58.799Z,-2.05
2018-02-06T01:24:58.774Z,-2.13
2018-02-06T01:25:58.760Z,-2.10
2018-02-06T01:26:58.775Z,-2.12
2018-02-06T01:27:58.734Z,-2.13
2018-02-06T01:28:58.708Z,-2.05
2018-02-06T01:29:58.696Z,-2.07
2018-02-06T01:30:58.681Z,-2.10
2018-02-06T01:31:58.670Z,-2.07
2018-02-06T01:32:58.655Z,-2.12
2018-02-06T01:33:58.634Z,-2.02
2018-02-06T01:34:58.630Z,-2.08
2018-02-06T01:35:58.601Z,-2.00
2018-02-06T01:36:58.589Z,-2.15
2018-02-06T01:37:58.568Z,-2.04
2018-02-06T01:38:58.552Z,-2.19
2018-02-06T01:39:58.538Z,-2.21
2018-02-06T01:40:58.524Z,-2.04
2018-02-06T01:41:58.514Z,-2.07
2018-02-06T01:42:58.491Z,-2.10
2018-02-06T01:43:58.470Z,-2.04
2018-02-06T01:44:58.464Z,-2.04
2018-02-06T01:45:58.439Z,-2.01
2018-02-06T01:46:58.430Z,-2.04
2018-02-06T01:47:58.419Z,-2.15
2018-02-06T01:48:58.397Z,-2.12
2018-02-06T01:49:58.384Z,-2.13
2018-02-06T01:50:58.373Z,-2.16
2018-02-06T01:51:58.353Z,-2.18
2018-02-06T01:52:58.333Z,-2.12
2018-02-06T01:53:58.318Z,-2.05
2018-02-06T01:54:58.307Z,-2.08
2018-02-06T01:55:58.289Z,-2.00
2018-02-06T01:56:58.287Z,-2.12
2018-02-06T01:57:58.249Z,-2.07
2018-02-06T01:58:58.237Z,-2.18
2018-02-06T01:59:58.219Z,-2.12
2018-02-06T02:00:58.235Z,-1.97
2018-02-06T02:01:58.189Z,-2.08
2018-02-06T02:02:58.229Z,-2.05
2018-02-06T02:03:58.171Z,-2.04
2018-02-06T02:04:58.154Z,-2.16
2018-02-06T02:05:58.127Z,-2.15
2018-02-06T02:06:58.173Z,-2.10
2018-02-06T02:07:58.123Z,-2.10
2018-02-06T02:08:58.106Z,-2.12
2018-02-06T02:09:58.067Z,-2.13
2018-02-06T02:10:58.061Z,-2.12
2018-02-06T02:11:58.046Z,-2.04
2018-02-06T02:12:58.031Z,-2.08
2018-02-06T02:13:58.004Z,-2.10
2018-02-06T02:14:58.001Z,-2.10
2018-02-06T02:15:57.995Z,-2.04
2018-02-06T02:16:57.970Z,-2.12
2018-02-06T02:17:57.935Z,-2.18
2018-02-06T02:18:57.921Z,-2.08
2018-02-06T02:19:57.908Z,-2.08
2018-02-06T02:20:57.891Z,-2.08
2018-02-06T02:21:57.906Z,-2.04
2018-02-06T02:22:57.868Z,-2.08
2018-02-06T02:23:57.844Z,-2.02
2018-02-06T02:24:57.826Z,-2.08
2018-02-06T02:25:57.828Z,-2.02
2018-02-06T02:26:57.794Z,-2.15
2018-02-06T02:27:57.777Z,-2.13
2018-02-06T02:28:57.763Z,-2.08
2018-02-06T02:29:57.753Z,-2.12
2018-02-06T02:30:57.754Z,-2.08
2018-02-06T02:31:57.713Z,-2.08
2018-02-06T02:32:57.700Z,-2.22
2018-02-06T02:33:57.688Z,-2.13
2018-02-06T02:34:57.676Z,-2.05
2018-02-06T02:35:57.652Z,-2.13
2018-02-06T02:36:57.634Z,-2.12
2018-02-06T02:37:57.617Z,-2.04
2018-02-06T02:38:57.601Z,-2.16
2018-02-06T02:39:57.586Z,-2.08
2018-02-06T02:40:57.574Z,-2.19
2018-02-06T04:38:55.707Z,-2.48
2018-02-06T04:39:55.654Z,-2.55
2018-02-06T04:40:55.645Z,-2.48
2018-02-06T04:41:55.617Z,-2.48
2018-02-06T04:42:55.599Z,-2.42
2018-02-06T04:43:55.590Z,-2.44
2018-02-06T04:44:55.571Z,-2.45
2018-02-06T04:45:55.564Z,-2.41
2018-02-06T04:46:55.540Z,-2.44
2018-02-06T04:47:55.520Z,-2.42
2018-02-06T04:48:55.505Z,-2.45
2018-02-06T04:49:55.491Z,-2.44
2018-02-06T04:50:55.470Z,-2.42
2018-02-06T04:51:55.467Z,-2.47
2018-02-06T04:52:55.437Z,-2.44
2018-02-06T04:53:55.438Z,-2.42
2018-02-06T04:54:55.410Z,-2.44
2018-02-06T04:55:55.401Z,-2.47
2018-02-06T04:56:55.375Z,-2.55
2018-02-06T04:57:55.357Z,-2.59
2018-02-06T04:58:55.362Z,-2.58
2018-02-06T04:59:55.326Z,-2.53
2018-02-06T05:00:55.310Z,-2.53
2018-02-06T05:01:55.288Z,-2.53
2018-02-06T05:02:55.321Z,-2.48
2018-02-06T05:03:55.259Z,-2.55
2018-02-06T05:04:55.248Z,-2.53
2018-02-06T05:05:55.235Z,-2.53
2018-02-06T05:06:55.220Z,-2.53
2018-02-06T05:07:55.198Z,-2.48
2018-02-06T05:08:55.182Z,-2.55
2018-02-06T05:09:55.165Z,-2.58
2018-02-06T05:10:55.144Z,-2.56
2018-02-06T05:11:55.138Z,-2.53
2018-02-06T05:12:55.134Z,-2.59
2018-02-06T05:13:55.102Z,-2.55
2018-02-06T05:14:55.091Z,-2.59
2018-02-06T05:15:55.066Z,-2.60
2018-02-06T05:16:55.051Z,-2.52
2018-02-06T05:17:55.042Z,-2.53
2018-02-06T05:18:55.024Z,-2.55
2018-02-06T05:19:54.999Z,-2.56
2018-02-06T05:20:54.992Z,-2.60
2018-02-06T05:21:54.981Z,-2.53
2018-02-06T05:22:54.954Z,-2.53
2018-02-06T05:23:54.952Z,-2.65
2018-02-06T05:24:54.919Z,-2.58
2018-02-06T05:25:54.904Z,-2.56
2018-02-06T05:26:54.892Z,-2.63
2018-02-06T05:27:54.871Z,-2.58
2018-02-06T05:28:54.850Z,-2.58
2018-02-06T05:29:54.837Z,-2.62
2018-02-06T05:30:54.820Z,-2.58
2018-02-06T05:31:54.803Z,-2.55
2018-02-06T05:32:54.796Z,-2.53
2018-02-06T05:33:54.775Z,-2.60
2018-02-06T05:34:54.759Z,-2.56
2018-02-06T05:35:54.746Z,-2.55
2018-02-06T05:36:54.730Z,-2.58
2018-02-06T05:37:54.716Z,-2.60
2018-02-06T05:38:54.695Z,-2.58
2018-02-06T05:39:54.679Z,-2.58
2018-02-06T05:40:54.660Z,-2.60
2018-02-06T05:41:54.648Z,-2.69
2018-02-06T05:42:54.630Z,-2.65
2018-02-06T05:43:54.625Z,-2.70
2018-02-06T05:44:54.593Z,-2.60
2018-02-06T05:45:54.598Z,-2.65
2018-02-06T05:46:54.562Z,-2.66
2018-02-06T05:47:54.554Z,-2.69
2018-02-06T05:48:54.532Z,-2.69
2018-02-06T05:49:54.517Z,-2.69
2018-02-06T05:50:54.506Z,-2.66
2018-02-06T05:51:54.478Z,-2.73
2018-02-06T05:52:54.667Z,-2.65
2018-02-06T05:53:54.449Z,-2.71
2018-02-06T05:54:54.439Z,-2.63
2018-02-06T05:55:54.417Z,-2.66
2018-02-06T05:56:54.402Z,-2.65
2018-02-06T05:57:54.383Z,-2.65
2018-02-06T05:58:54.368Z,-2.66
2018-02-06T05:59:54.352Z,-2.70
2018-02-06T06:00:54.345Z,-2.69
2018-02-06T06:01:54.320Z,-2.84
2018-02-06T06:02:54.305Z,-2.81
2018-02-06T06:03:54.284Z,-2.71
2018-02-06T06:04:54.267Z,-2.70
2018-02-06T06:05:54.250Z,-2.73
2018-02-06T06:06:54.235Z,-2.71
2018-02-06T06:07:54.247Z,-2.71
2018-02-06T06:08:54.201Z,-2.65
2018-02-06T06:09:54.187Z,-2.71
2018-02-06T06:10:54.169Z,-2.76
2018-02-06T06:11:54.157Z,-2.73
2018-02-06T06:12:54.141Z,-2.81
2018-02-06T06:13:54.122Z,-2.70
2018-02-06T06:14:54.107Z,-2.80
2018-02-06T06:15:54.090Z,-2.78
2018-02-06T06:16:54.086Z,-2.77
2018-02-06T06:17:54.057Z,-2.74
2018-02-06T06:18:54.038Z,-2.83
2018-02-06T06:19:54.026Z,-2.81
2018-02-06T06:20:54.021Z,-2.88
2018-02-06T06:21:54.006Z,-2.84
2018-02-06T06:22:54.000Z,-2.88
2018-02-06T06:23:53.960Z,-2.88
2018-02-06T06:24:53.948Z,-2.88
2018-02-06T06:25:53.936Z,-2.78
2018-02-06T06:26:53.909Z,-2.80
2018-02-06T06:27:53.907Z,-2.88
2018-02-06T06:28:53.880Z,-2.77
2018-02-06T06:29:53.866Z,-2.73
2018-02-06T06:30:53.842Z,-2.71
2018-02-06T06:31:53.826Z,-2.70
2018-02-06T06:32:53.811Z,-2.81
2018-02-06T06:33:53.794Z,-2.77
2018-02-06T06:34:53.789Z,-2.76
2018-02-06T06:35:53.762Z,-2.78
2018-02-06T06:36:53.756Z,-2.84
2018-02-06T06:37:53.736Z,-2.86
2018-02-06T06:38:53.715Z,-2.83
2018-02-06T06:39:53.698Z,-2.88
2018-02-06T06:40:53.681Z,-2.86
2018-02-06T06:41:53.665Z,-2.94
2018-02-06T06:42:53.655Z,-2.88
2018-02-06T06:43:53.640Z,-2.86
2018-02-06T06:44:53.615Z,-2.81
2018-02-06T06:45:53.596Z,-2.89
2018-02-06T06:46:53.581Z,-2.94
2018-02-06T06:47:53.576Z,-2.89
2018-02-06T06:48:53.565Z,-2.97
2018-02-06T06:49:53.535Z,-3.02
2018-02-06T06:50:53.523Z,-3.02
2018-02-06T06:51:53.542Z,-3.02
2018-02-06T06:52:53.493Z,-2.99
2018-02-06T06:53:53.473Z,-2.97
2018-02-06T06:54:53.470Z,-2.89
2018-02-06T06:55:53.466Z,-2.94
2018-02-06T06:56:53.424Z,-2.91
2018-02-06T06:57:53.403Z,-2.97
2018-02-06T06:58:53.387Z,-2.95
2018-02-06T06:59:53.394Z,-2.98
2018-02-06T07:00:53.354Z,-2.98
2018-02-06T07:01:53.334Z,-2.97
2018-02-06T07:02:53.349Z,-2.88
2018-02-06T07:03:53.356Z,-2.98
2018-02-06T07:04:53.293Z,-2.89
2018-02-06T07:05:53.274Z,-2.94
2018-02-06T07:06:53.252Z,-2.94
2018-02-06T07:07:53.238Z,-3.01
2018-02-06T07:08:53.251Z,-2.99
2018-02-06T07:09:53.207Z,-2.91
2018-02-06T07:10:53.200Z,-2.95
2018-02-06T07:11:53.174Z,-2.99
2018-02-06T07:12:53.153Z,-2.94
2018-02-06T07:13:53.154Z,-2.99
2018-02-06T07:14:53.125Z,-3.04
2018-02-06T07:15:53.110Z,-2.89
2018-02-06T07:16:53.161Z,-2.95
2018-02-06T07:17:53.078Z,-3.02
2018-02-06T07:18:53.061Z,-3.01
2018-02-06T07:19:53.044Z,-2.99
2018-02-06T07:20:53.047Z,-3.01
2018-02-06T07:21:53.036Z,-2.95
2018-02-06T07:22:53.094Z,-2.94
2018-02-06T07:23:52.979Z,-2.84
2018-02-06T07:24:52.956Z,-2.84
2018-02-06T07:25:52.979Z,-2.89
2018-02-06T07:26:52.962Z,-2.83
2018-02-06T07:27:52.910Z,-2.86
2018-02-06T07:28:52.978Z,-2.81
2018-02-06T07:29:52.894Z,-2.78
2018-02-06T07:30:52.874Z,-2.88
2018-02-06T07:31:52.852Z,-2.86
2018-02-06T07:32:52.828Z,-2.81
2018-02-06T07:33:52.830Z,-2.84
2018-02-06T07:34:52.808Z,-2.88
2018-02-06T07:35:52.779Z,-2.99
2018-02-06T07:36:52.766Z,-2.88
2018-02-06T07:37:52.747Z,-2.88
2018-02-06T07:38:52.731Z,-2.95
2018-02-06T07:39:52.714Z,-2.83
2018-02-06T07:40:52.704Z,-2.92
2018-02-06T07:41:52.681Z,-2.88
2018-02-06T07:42:52.670Z,-2.88
2018-02-06T07:43:52.658Z,-2.77
2018-02-06T07:44:52.635Z,-2.83
2018-02-06T07:45:52.618Z,-2.84
2018-02-06T07:46:52.597Z,-2.83
2018-02-06T07:47:52.618Z,-2.80
2018-02-06T07:48:52.570Z,-2.80
2018-02-06T07:49:52.554Z,-2.86
2018-02-06T07:50:52.545Z,-2.89
2018-02-06T07:51:52.523Z,-2.84
2018-02-06T07:52:52.501Z,-2.83
2018-02-06T07:53:52.491Z,-2.83
2018-02-06T07:54:52.470Z,-2.77
2018-02-06T07:55:52.456Z,-2.71
2018-02-06T07:56:52.436Z,-2.71
2018-02-06T07:57:52.425Z,-2.76
2018-02-06T07:58:52.414Z,-2.83
2018-02-06T07:59:52.393Z,-2.77
2018-02-06T08:00:52.375Z,-2.74
2018-02-06T08:01:52.379Z,-2.81
2018-02-06T08:02:52.345Z,-2.81
2018-02-06T08:03:52.328Z,-2.74
2018-02-06T08:04:52.311Z,-2.80
2018-02-06T08:05:52.292Z,-2.71
2018-02-06T08:06:52.278Z,-2.77
2018-02-06T08:07:52.261Z,-2.70
2018-02-06T08:08:52.255Z,-2.69
2018-02-06T08:09:52.242Z,-2.70
2018-02-06T08:10:52.220Z,-2.69
2018-02-06T08:11:52.203Z,-2.71
2018-02-06T08:12:52.187Z,-2.86
2018-02-06T08:13:52.167Z,-2.71
2018-02-06T08:14:52.164Z,-2.77
2018-02-06T08:15:52.139Z,-2.65
2018-02-06T08:16:52.118Z,-2.65
2018-02-06T08:17:52.104Z,-2.63
2018-02-06T08:18:52.095Z,-2.62
2018-02-06T08:19:52.077Z,-2.70
2018-02-06T08:20:52.083Z,-2.60
2018-02-06T08:21:52.057Z,-2.63
2018-02-06T08:22:52.024Z,-2.53
2018-02-06T08:23:52.035Z,-2.55
2018-02-06T08:24:52.008Z,-2.40
2018-02-06T08:25:51.981Z,-2.30
2018-02-06T08:26:51.968Z,-2.35
2018-02-06T08:27:51.953Z,-2.38
2018-02-06T08:28:51.954Z,-2.25
2018-02-06T08:29:51.915Z,-2.32
2018-02-06T08:30:51.908Z,-2.26
2018-02-06T08:31:51.896Z,-2.26
2018-02-06T08:32:51.879Z,-2.19
2018-02-06T08:33:51.866Z,-2.08
2018-02-06T08:34:51.844Z,-2.07
2018-02-06T08:35:51.836Z,-2.13
2018-02-06T08:36:51.813Z,-2.08
2018-02-06T08:37:51.806Z,-2.08
2018-02-06T08:38:51.784Z,-2.07
2018-02-06T08:39:51.772Z,-1.94
2018-02-06T08:40:51.754Z,-1.83
2018-02-06T08:41:51.767Z,-1.71
2018-02-06T08:42:51.727Z,-1.64
2018-02-06T08:43:51.737Z,-1.64
2018-02-06T08:44:51.704Z,-1.64
2018-02-06T08:45:51.687Z,-1.58
2018-02-06T08:46:51.675Z,-1.54
2018-02-06T08:47:51.660Z,-1.65
2018-02-06T08:48:51.650Z,-1.76
2018-02-06T08:49:51.659Z,-1.84
2018-02-06T08:50:51.642Z,-2.00
2018-02-06T08:51:51.608Z,-1.95
2018-02-06T08:52:51.593Z,-1.97
2018-02-06T08:53:51.582Z,-1.92
2018-02-06T08:54:51.567Z,-2.01
2018-02-06T08:55:51.552Z,-1.94
2018-02-06T08:56:51.545Z,-2.05
2018-02-06T08:57:51.527Z,-1.95
2018-02-06T08:58:51.516Z,-1.97
2018-02-06T08:59:51.502Z,-1.98
2018-02-06T09:00:51.485Z,-1.94
2018-02-06T09:01:51.472Z,-1.95
2018-02-06T09:02:51.475Z,-1.89
2018-02-06T09:03:51.460Z,-1.94
2018-02-06T09:04:51.426Z,-1.95
2018-02-06T09:05:51.416Z,-1.98
2018-02-06T09:06:51.415Z,-1.94
2018-02-06T09:07:51.389Z,-1.98
2018-02-06T09:08:51.383Z,-1.95
2018-02-06T09:09:51.360Z,-2.00
2018-02-06T09:10:51.429Z,-1.92
2018-02-06T09:11:51.361Z,-1.89
2018-02-06T09:12:51.319Z,-1.72
2018-02-06T09:13:51.304Z,-1.77
2018-02-06T09:14:51.297Z,-1.68
2018-02-06T09:15:51.274Z,-1.66
2018-02-06T09:16:51.273Z,-1.50
2018-02-06T09:17:51.293Z,-1.37
2018-02-06T09:18:51.260Z,-1.30
2018-02-06T09:19:51.218Z,-1.12
2018-02-06T09:20:51.207Z,-0.97
2018-02-06T09:21:51.193Z,-0.93
2018-02-06T09:22:51.183Z,-0.93
2018-02-06T09:23:51.167Z,-0.94
2018-02-06T09:24:51.177Z,-0.83
2018-02-06T09:25:51.139Z,-0.82
2018-02-06T09:26:51.129Z,-0.77
2018-02-06T09:27:51.108Z,-0.86
2018-02-06T09:28:51.108Z,-0.83
2018-02-06T09:29:51.082Z,-0.68
2018-02-06T09:30:51.089Z,-0.65
2018-02-06T09:31:51.061Z,-0.71
2018-02-06T09:32:51.051Z,-0.75
2018-02-06T09:33:51.046Z,-0.65
2018-02-06T09:34:51.035Z,-0.72
2018-02-06T09:35:51.108Z,-0.77
2018-02-06T09:36:51.006Z,-0.71
2018-02-06T09:37:50.989Z,-0.83
2018-02-06T09:38:51.001Z,-0.62
2018-02-06T09:39:50.972Z,-0.46
2018-02-06T09:40:50.953Z,-0.20
2018-02-06T09:41:50.947Z,-0.14
2018-02-06T09:42:50.936Z,-0.03
2018-02-06T09:43:50.924Z,-0.02
2018-02-06T09:44:50.925Z,0.00
2018-02-06T09:45:50.892Z,0.37
2018-02-06T09:46:50.897Z,0.60
2018-02-06T09:47:50.873Z,0.60
2018-02-06T09:48:50.856Z,0.12
2018-02-06T09:49:50.850Z,-0.06
2018-02-06T09:50:50.851Z,-0.07
2018-02-06T09:51:50.827Z,-0.18
2018-02-06T09:52:50.816Z,-0.23
2018-02-06T09:53:50.807Z,-0.26
2018-02-06T09:54:50.794Z,0.03
2018-02-06T09:55:50.782Z,0.11
2018-02-06T09:56:50.772Z,0.15
2018-02-06T09:57:50.763Z,0.28
2018-02-06T09:58:50.750Z,0.26
2018-02-06T09:59:50.742Z,0.39
2018-02-06T10:00:50.738Z,0.66
2018-02-06T10:01:50.719Z,0.78
2018-02-06T10:02:50.709Z,0.86
2018-02-06T10:03:50.695Z,0.94
2018-02-06T10:04:50.708Z,0.86
2018-02-06T10:05:50.676Z,0.69
2018-02-06T10:06:50.673Z,0.65
2018-02-06T10:07:50.668Z,0.43
2018-02-06T10:08:50.650Z,0.26
2018-02-06T10:09:50.638Z,-0.10
2018-02-06T10:10:50.630Z,-0.14
2018-02-06T10:11:50.620Z,-0.08
2018-02-06T10:12:50.617Z,-0.21
2018-02-06T10:13:50.601Z,-0.26
2018-02-06T10:14:50.590Z,-0.28
2018-02-06T10:15:50.580Z,-0.21
2018-02-06T10:16:50.602Z,-0.28
2018-02-06T10:17:50.561Z,-0.21
2018-02-06T10:18:50.543Z,-0.20
2018-02-06T10:19:50.550Z,-0.20
2018-02-06T10:20:50.541Z,-0.14
2018-02-06T10:21:50.520Z,-0.17
2018-02-06T10:22:50.520Z,-0.20
2018-02-06T10:23:50.492Z,-0.11
2018-02-06T10:24:50.493Z,-0.08
2018-02-06T10:25:50.468Z,0.00
2018-02-06T10:26:50.461Z,0.04
2018-02-06T10:27:50.447Z,0.10
2018-02-06T10:28:50.438Z,0.11
2018-02-06T10:29:50.428Z,0.12
2018-02-06T10:30:50.416Z,0.15
2018-02-06T10:31:50.399Z,0.08
2018-02-06T10:32:50.408Z,0.01
2018-02-06T10:33:50.388Z,-0.08
2018-02-06T10:34:50.376Z,-0.06
2018-02-06T10:35:50.364Z,0.04
2018-02-06T10:36:50.360Z,0.05
2018-02-06T10:37:50.339Z,0.08
2018-02-06T10:38:50.344Z,0.16
2018-02-06T10:39:50.368Z,0.28
2018-02-06T10:40:50.305Z,0.26
2018-02-06T10:41:50.312Z,0.22
2018-02-06T10:42:50.285Z,0.16
2018-02-06T10:43:50.277Z,0.18
2018-02-06T10:44:50.260Z,0.10
2018-02-06T10:45:50.264Z,0.26
2018-02-06T10:46:50.254Z,0.43
2018-02-06T10:47:50.228Z,0.44
2018-02-06T10:48:50.255Z,0.52
2018-02-06T10:49:50.214Z,0.41
2018-02-06T10:50:50.199Z,0.44
2018-02-06T10:51:50.192Z,0.41
2018-02-06T10:52:50.220Z,0.34
2018-02-06T10:53:50.178Z,0.31
2018-02-06T10:54:50.162Z,0.18
2018-02-06T10:55:50.148Z,0.11
2018-02-06T10:56:50.135Z,0.25
2018-02-06T10:57:50.129Z,0.26
2018-02-06T10:58:50.131Z,0.31
2018-02-06T10:59:50.104Z,0.36
2018-02-06T11:00:50.098Z,0.46
2018-02-06T11:01:50.087Z,0.40
2018-02-06T11:02:50.075Z,0.37
2018-02-06T11:03:50.064Z,0.28
2018-02-06T11:04:50.045Z,0.28
2018-02-06T11:05:50.035Z,0.46
2018-02-06T11:06:50.029Z,0.44
2018-02-06T11:07:50.022Z,0.50
2018-02-06T11:08:50.005Z,0.44
2018-02-06T11:09:49.993Z,0.37
2018-02-06T11:10:49.982Z,0.12
2018-02-06T11:11:49.972Z,0.12
2018-02-06T11:12:49.962Z,0.11
2018-02-06T11:13:49.964Z,0.11
2018-02-06T11:14:49.940Z,0.34
2018-02-06T11:15:49.948Z,0.40
2018-02-06T11:16:49.951Z,0.37
2018-02-06T11:17:49.904Z,0.41
2018-02-06T11:18:49.908Z,0.52
2018-02-06T11:19:49.883Z,0.49
2018-02-06T11:20:49.909Z,0.58
2018-02-06T11:21:49.871Z,0.62
2018-02-06T11:22:49.851Z,0.63
2018-02-06T11:23:49.840Z,0.55
2018-02-06T11:24:49.831Z,0.47
2018-02-06T11:25:49.832Z,0.44
2018-02-06T11:26:49.818Z,0.50
2018-02-06T11:27:49.802Z,0.36
2018-02-06T11:28:49.791Z,0.44
2018-02-06T11:29:49.772Z,0.34
2018-02-06T11:30:49.762Z,0.29
2018-02-06T11:31:49.747Z,0.40
2018-02-06T11:32:49.746Z,0.52
2018-02-06T11:33:49.740Z,0.44
2018-02-06T11:34:49.716Z,0.47
2018-02-06T11:35:49.719Z,0.44
2018-02-06T11:36:49.689Z,0.40
2018-02-06T11:37:49.685Z,0.31
2018-02-06T11:38:49.672Z,0.32
2018-02-06T11:39:49.656Z,0.34
2018-02-06T11:40:49.644Z,0.37
2018-02-06T11:41:49.633Z,0.43
2018-02-06T11:42:49.628Z,0.40
2018-02-06T11:43:49.613Z,0.31
2018-02-06T11:44:49.605Z,0.36
2018-02-06T11:45:49.602Z,0.46
2018-02-06T11:46:49.575Z,0.29
2018-02-06T11:47:49.600Z,0.43
2018-02-06T11:48:49.561Z,0.44
2018-02-06T11:49:49.558Z,0.55
2018-02-06T11:50:49.530Z,0.62
2018-02-06T11:51:49.517Z,0.55
2018-02-06T11:52:49.504Z,0.69
2018-02-06T11:53:49.509Z,0.69
2018-02-06T11:54:49.487Z,0.69
2018-02-06T11:55:49.477Z,0.77
2018-02-06T11:56:49.473Z,0.73
2018-02-06T11:57:49.455Z,0.70
2018-02-06T11:58:49.442Z,0.73
2018-02-06T11:59:50.067Z,0.76
2018-02-06T12:00:49.421Z,0.84
2018-02-06T12:01:49.401Z,0.83
2018-02-06T12:02:49.391Z,0.84
2018-02-06T12:03:49.412Z,0.81
2018-02-06T12:04:49.375Z,0.98
2018-02-06T12:05:49.359Z,0.91
2018-02-06T12:06:49.349Z,0.81
2018-02-06T12:07:49.337Z,0.83
2018-02-06T12:08:49.348Z,0.83
2018-02-06T12:09:49.331Z,0.84
2018-02-06T12:10:49.302Z,0.96
2018-02-06T12:11:49.301Z,0.94
2018-02-06T12:12:49.293Z,0.96
2018-02-06T12:13:49.392Z,0.96
2018-02-06T12:14:49.256Z,0.87
2018-02-06T12:15:49.254Z,0.81
2018-02-06T12:16:49.234Z,0.95
2018-02-06T12:17:49.222Z,1.01
2018-02-06T12:18:49.221Z,0.99
2018-02-06T12:19:49.208Z,1.02
2018-02-06T12:20:49.203Z,0.92
2018-02-06T12:21:49.175Z,0.96
2018-02-06T12:22:49.165Z,0.81
2018-02-06T12:23:49.165Z,0.84
2018-02-06T12:24:49.145Z,0.86
2018-02-06T12:25:49.133Z,0.83
2018-02-06T12:26:49.140Z,1.05
2018-02-06T12:27:49.118Z,1.22
2018-02-06T12:28:49.113Z,1.30
2018-02-06T12:29:49.095Z,1.50
2018-02-06T12:30:49.080Z,1.56
2018-02-06T12:31:49.097Z,1.66
2018-02-06T12:32:49.069Z,1.76
2018-02-06T12:33:49.056Z,1.85
2018-02-06T12:34:49.042Z,1.94
2018-02-06T12:35:49.033Z,1.99
2018-02-06T12:36:49.022Z,1.99
2018-02-06T12:37:49.013Z,1.97
2018-02-06T12:38:49.005Z,1.85
2018-02-06T12:39:48.995Z,1.87
2018-02-06T12:40:48.990Z,1.85
2018-02-06T12:41:48.985Z,1.99
2018-02-06T12:42:48.975Z,2.00
2018-02-06T12:43:48.961Z,1.91
2018-02-06T12:44:48.957Z,1.91
2018-02-06T12:45:48.941Z,1.88
2018-02-06T12:46:48.937Z,1.84
2018-02-06T12:47:48.926Z,1.74
2018-02-06T12:48:48.909Z,1.62
2018-02-06T12:49:48.904Z,1.68
2018-02-06T12:50:48.897Z,1.59
2018-02-06T12:51:48.898Z,1.71
2018-02-06T12:52:48.884Z,1.63
2018-02-06T12:53:48.869Z,1.66
2018-02-06T12:54:48.857Z,1.68
2018-02-06T12:55:48.848Z,1.74
2018-02-06T12:56:48.850Z,1.84
2018-02-06T12:57:48.826Z,1.81
2018-02-06T12:58:48.839Z,1.73
2018-02-06T12:59:48.804Z,1.73
2018-02-06T13:00:48.802Z,1.76
2018-02-06T13:01:48.784Z,1.73
2018-02-06T13:02:48.776Z,1.68
2018-02-06T13:03:48.770Z,1.60
2018-02-06T13:04:48.772Z,1.44
2018-02-06T13:05:48.742Z,1.31
2018-02-06T13:06:48.731Z,1.34
2018-02-06T13:07:48.720Z,1.34
2018-02-06T13:08:48.781Z,1.34
2018-02-06T13:09:48.702Z,1.37
2018-02-06T13:10:48.693Z,1.42
2018-02-06T13:11:48.679Z,1.45
2018-02-06T13:12:48.673Z,1.40
2018-02-06T13:13:48.652Z,1.38
2018-02-06T13:14:48.640Z,1.30
2018-02-06T13:15:48.639Z,1.31
2018-02-06T13:16:48.643Z,1.32
2018-02-06T13:17:48.609Z,1.35
2018-02-06T13:18:48.602Z,1.30
2018-02-06T13:19:48.595Z,1.38
2018-02-06T13:20:48.576Z,1.38
2018-02-06T13:21:48.566Z,1.38
2018-02-06T13:22:48.575Z,1.24
2018-02-06T13:23:48.545Z,1.17
2018-02-06T13:24:48.540Z,1.14
2018-02-06T13:25:48.524Z,1.17
2018-02-06T13:26:48.516Z,1.20
2018-02-06T13:27:48.497Z,1.22
2018-02-06T13:28:48.482Z,1.26
2018-02-06T13:29:48.475Z,1.23
2018-02-06T13:30:48.478Z,1.22
2018-02-06T13:31:48.449Z,1.35
2018-02-06T13:32:48.450Z,1.32
2018-02-06T13:33:48.434Z,1.38
2018-02-06T13:34:48.419Z,1.37
2018-02-06T13:35:48.403Z,1.40
2018-02-06T13:36:48.396Z,1.41
2018-02-06T13:37:48.385Z,1.41
2018-02-06T13:38:48.389Z,1.48
2018-02-06T13:39:48.363Z,1.48
2018-02-06T13:40:48.348Z,1.45
2018-02-06T13:41:48.371Z,1.37
2018-02-06T13:42:48.326Z,1.30
2018-02-06T13:43:48.328Z,1.35
2018-02-06T13:44:48.330Z,1.24
2018-02-06T13:45:48.318Z,1.20
2018-02-06T13:46:48.280Z,1.20
2018-02-06T13:47:48.271Z,1.26
2018-02-06T13:48:48.253Z,1.22
2018-02-06T13:49:48.259Z,1.20
2018-02-06T13:50:48.245Z,1.30
2018-02-06T13:51:48.235Z,1.28
2018-02-06T13:52:48.207Z,1.30
2018-02-06T13:53:48.238Z,1.32
2018-02-06T13:54:48.185Z,1.28
2018-02-06T13:55:48.171Z,1.34
2018-02-06T13:56:48.163Z,1.34
2018-02-06T13:57:48.145Z,1.37
2018-02-06T13:58:48.140Z,1.38
2018-02-06T13:59:48.128Z,1.40
2018-02-06T14:00:48.141Z,1.40
2018-02-06T14:01:48.105Z,1.35
2018-02-06T14:02:48.091Z,1.42
2018-02-06T14:03:48.077Z,1.31
2018-02-06T14:04:48.067Z,1.34
2018-02-06T14:05:48.054Z,1.22
2018-02-06T14:06:48.055Z,1.22
2018-02-06T14:07:48.055Z,1.22
2018-02-06T14:08:48.022Z,1.23
2018-02-06T14:09:48.015Z,1.26
2018-02-06T14:10:47.990Z,1.26
2018-02-06T14:11:47.976Z,1.23
2018-02-06T14:12:47.979Z,1.22
2018-02-06T14:13:47.956Z,1.28
2018-02-06T14:14:47.945Z,1.22
2018-02-06T14:15:47.935Z,1.16
2018-02-06T14:16:47.915Z,1.23
2018-02-06T14:17:47.906Z,1.22
2018-02-06T14:18:47.901Z,1.13
2018-02-06T14:19:47.886Z,1.17
2018-02-06T14:20:47.877Z,1.13
2018-02-06T14:21:47.859Z,1.17
2018-02-06T14:22:47.846Z,1.10
2018-02-06T14:23:47.842Z,0.99
2018-02-06T14:24:47.825Z,0.95
2018-02-06T14:25:47.813Z,0.95
2018-02-06T14:26:47.796Z,0.98
2018-02-06T14:27:47.797Z,0.99
2018-02-06T14:28:47.790Z,0.94
2018-02-06T14:29:47.762Z,0.92
2018-02-06T14:30:47.764Z,0.94
2018-02-06T14:31:47.743Z,0.95
2018-02-06T14:32:47.724Z,0.96
2018-02-06T14:33:47.724Z,0.87
2018-02-06T14:34:47.697Z,0.88
2018-02-06T14:35:47.690Z,0.96
2018-02-06T14:36:47.677Z,0.88
2018-02-06T14:37:47.657Z,0.96
2018-02-06T14:38:47.661Z,0.98
2018-02-06T14:39:47.651Z,0.95
2018-02-06T14:40:47.628Z,0.95
2018-02-06T14:41:47.612Z,0.99
2018-02-06T14:42:47.596Z,0.86
2018-02-06T14:43:47.584Z,0.86
2018-02-06T14:44:47.625Z,0.83
2018-02-06T14:45:47.565Z,0.83
2018-02-06T14:46:47.549Z,0.87
2018-02-06T14:47:47.555Z,0.87
2018-02-06T14:48:47.527Z,0.87
2018-02-06T14:49:47.538Z,0.86
2018-02-06T14:50:47.499Z,0.87
2018-02-06T14:51:47.482Z,0.87
2018-02-06T14:52:47.473Z,0.78
2018-02-06T14:53:47.458Z,0.77
2018-02-06T14:54:47.458Z,0.77
2018-02-06T14:55:47.436Z,0.80
2018-02-06T14:56:47.425Z,0.74
2018-02-06T14:57:47.404Z,0.74
2018-02-06T14:58:47.397Z,0.76